createdAt,value
2023-04-30T00:01:57.948Z,16.00
2023-04-30T00:03:59.700Z,16.00
2023-04-30T00:06:01.483Z,16.00
2023-04-30T00:08:03.173Z,16.00
2023-04-30T00:10:05.469Z,16.00
2023-04-30T00:12:07.174Z,15.90
2023-04-30T00:14:10.004Z,15.90
2023-04-30T00:16:11.729Z,15.90
2023-04-30T00:18:13.405Z,15.90
2023-04-30T00:20:15.370Z,15.90
2023-04-30T00:22:17.050Z,15.90
2023-04-30T00:24:18.731Z,16.00
2023-04-30T00:26:20.555Z,15.90
2023-04-30T00:28:23.813Z,15.90
2023-04-30T00:30:25.654Z,15.90
2023-04-30T00:32:27.342Z,15.90
2023-04-30T00:34:29.077Z,15.90
2023-04-30T00:36:31.858Z,15.90
2023-04-30T00:38:33.553Z,15.90
2023-04-30T00:40:35.742Z,15.90
2023-04-30T00:42:37.371Z,15.90
2023-04-30T00:44:39.005Z,15.90
2023-04-30T00:46:40.874Z,15.90
2023-04-30T00:48:42.674Z,15.90
2023-04-30T00:50:45.061Z,15.90
2023-04-30T00:52:46.744Z,15.90
2023-04-30T00:54:48.423Z,15.90
2023-04-30T00:56:50.263Z,15.90
2023-04-30T00:58:54.293Z,15.90
2023-04-30T01:00:56.167Z,15.90
2023-04-30T01:02:58.145Z,15.90
2023-04-30T01:05:00.003Z,15.90
2023-04-30T01:07:02.269Z,15.90
2023-04-30T01:09:04.029Z,15.90
2023-04-30T01:11:10.279Z,15.90
2023-04-30T01:13:26.487Z,15.90
2023-04-30T01:15:48.445Z,15.90
2023-04-30T01:17:55.808Z,15.90
2023-04-30T01:19:57.753Z,15.90
2023-04-30T01:22:01.642Z,15.90
2023-04-30T01:24:21.737Z,16.00
2023-04-30T01:26:41.861Z,15.90
2023-04-30T01:28:44.580Z,16.00
2023-04-30T01:30:47.066Z,15.90
2023-04-30T01:32:48.936Z,16.00
2023-04-30T01:34:50.814Z,15.90
2023-04-30T01:37:08.864Z,15.90
2023-04-30T01:39:19.439Z,16.00
2023-04-30T01:41:31.016Z,15.90
2023-04-30T01:43:52.909Z,15.90
2023-04-30T01:46:02.698Z,16.00
2023-04-30T01:48:04.365Z,16.00
2023-04-30T01:50:14.954Z,16.00
2023-04-30T01:52:25.016Z,15.90
2023-04-30T01:54:33.047Z,15.90
2023-04-30T01:56:41.328Z,16.00
2023-04-30T01:58:43.650Z,15.90
2023-04-30T02:00:45.432Z,16.00
2023-04-30T02:02:47.364Z,15.90
2023-04-30T02:04:49.065Z,15.90
2023-04-30T02:06:50.848Z,16.00
2023-04-30T02:08:52.550Z,15.90
2023-04-30T02:10:54.207Z,15.90
2023-04-30T02:12:56.000Z,15.90
2023-04-30T02:14:57.717Z,15.90
2023-04-30T02:16:59.367Z,15.90
2023-04-30T02:19:01.672Z,15.90
2023-04-30T02:21:03.375Z,16.00
2023-04-30T02:23:04.984Z,15.90
2023-04-30T02:25:07.133Z,15.90
2023-04-30T02:27:08.778Z,15.90
2023-04-30T02:29:10.462Z,16.00
2023-04-30T02:31:12.319Z,15.90
2023-04-30T02:33:14.186Z,15.90
2023-04-30T02:35:15.858Z,15.90
2023-04-30T02:37:17.644Z,15.90
2023-04-30T02:39:19.238Z,15.80
2023-04-30T02:41:21.651Z,15.80
2023-04-30T02:43:23.392Z,15.90
2023-04-30T02:45:25.349Z,15.80
2023-04-30T02:47:27.176Z,15.90
2023-04-30T02:49:29.306Z,15.80
2023-04-30T02:51:32.571Z,15.80
2023-04-30T02:53:34.427Z,15.80
2023-04-30T02:55:36.364Z,15.80
2023-04-30T02:57:38.019Z,15.80
2023-04-30T02:59:39.733Z,15.80
2023-04-30T03:01:41.541Z,15.80
2023-04-30T03:03:43.260Z,15.80
2023-04-30T03:05:44.890Z,15.70
2023-04-30T03:07:46.540Z,15.80
2023-04-30T03:09:48.208Z,15.80
2023-04-30T03:11:49.870Z,15.70
2023-04-30T03:13:51.628Z,15.70
2023-04-30T03:15:57.834Z,15.70
2023-04-30T03:17:59.593Z,15.70
2023-04-30T03:20:01.260Z,15.70
2023-04-30T03:22:02.914Z,15.70
2023-04-30T03:24:05.206Z,15.70
2023-04-30T03:26:06.962Z,15.70
2023-04-30T03:28:08.603Z,15.70
2023-04-30T03:30:10.563Z,15.70
2023-04-30T03:32:12.199Z,15.70
2023-04-30T03:34:13.878Z,15.70
2023-04-30T03:36:15.801Z,15.70
2023-04-30T03:38:17.647Z,15.70
2023-04-30T03:40:19.538Z,15.70
2023-04-30T03:42:21.161Z,15.70
2023-04-30T03:44:23.246Z,15.70
2023-04-30T03:46:25.070Z,15.70
2023-04-30T03:48:27.176Z,15.70
2023-04-30T03:50:28.895Z,15.70
2023-04-30T03:52:31.461Z,15.70
2023-04-30T03:54:36.071Z,15.70
2023-04-30T03:56:38.043Z,15.70
2023-04-30T03:58:40.147Z,15.70
2023-04-30T04:00:41.946Z,15.60
2023-04-30T04:02:44.780Z,15.70
2023-04-30T04:04:46.900Z,15.60
2023-04-30T04:06:48.618Z,15.60
2023-04-30T04:08:50.461Z,15.60
2023-04-30T04:10:52.198Z,15.60
2023-04-30T04:12:53.941Z,15.60
2023-04-30T04:14:55.803Z,15.60
2023-04-30T04:16:59.886Z,15.60
2023-04-30T04:19:01.585Z,15.60
2023-04-30T04:21:04.366Z,15.60
2023-04-30T04:23:06.542Z,15.60
2023-04-30T04:25:08.755Z,15.50
2023-04-30T04:27:10.641Z,15.60
2023-04-30T04:29:12.422Z,15.50
2023-04-30T04:31:15.844Z,15.60
2023-04-30T04:33:17.545Z,15.60
2023-04-30T04:35:19.551Z,15.50
2023-04-30T04:37:21.729Z,15.50
2023-04-30T04:39:23.543Z,15.50
2023-04-30T04:41:26.557Z,15.50
2023-04-30T04:43:28.478Z,15.50
2023-04-30T04:45:31.343Z,15.50
2023-04-30T04:47:33.482Z,15.50
2023-04-30T04:49:35.353Z,15.40
2023-04-30T04:51:37.092Z,15.50
2023-04-30T04:53:38.881Z,15.50
2023-04-30T04:55:40.979Z,15.40
2023-04-30T04:57:43.220Z,15.40
2023-04-30T04:59:45.109Z,15.40
2023-04-30T05:01:46.948Z,15.50
2023-04-30T05:03:49.448Z,15.50
2023-04-30T05:05:51.633Z,15.50
2023-04-30T05:07:54.929Z,15.50
2023-04-30T05:09:56.885Z,15.50
2023-04-30T05:11:58.690Z,15.50
2023-04-30T05:14:00.291Z,15.50
2023-04-30T05:16:01.932Z,15.50
2023-04-30T05:18:03.742Z,15.50
2023-04-30T05:20:07.348Z,15.50
2023-04-30T05:22:09.191Z,15.50
2023-04-30T05:24:10.907Z,15.50
2023-04-30T05:26:12.593Z,15.50
2023-04-30T05:28:14.197Z,15.50
2023-04-30T05:30:15.841Z,15.50
2023-04-30T05:32:17.511Z,15.50
2023-04-30T05:34:19.227Z,15.60
2023-04-30T05:36:20.873Z,15.60
2023-04-30T05:38:22.586Z,15.50
2023-04-30T05:40:24.257Z,15.50
2023-04-30T05:42:25.848Z,15.50
2023-04-30T05:44:30.306Z,15.60
2023-04-30T05:46:32.206Z,15.50
2023-04-30T05:48:33.915Z,15.50
2023-04-30T05:50:35.621Z,15.50
2023-04-30T05:52:37.261Z,15.60
2023-04-30T05:54:38.984Z,15.50
2023-04-30T05:56:40.700Z,15.50
2023-04-30T05:58:42.356Z,15.50
2023-04-30T06:00:43.977Z,15.60
2023-04-30T06:02:45.919Z,15.60
2023-04-30T06:04:47.852Z,15.50
2023-04-30T06:06:49.566Z,15.50
2023-04-30T06:08:51.216Z,15.60
2023-04-30T06:10:52.905Z,15.50
2023-04-30T06:12:54.599Z,15.50
2023-04-30T06:14:56.297Z,15.50
2023-04-30T06:16:57.934Z,15.50
2023-04-30T06:18:59.810Z,15.60
2023-04-30T06:21:01.450Z,15.50
2023-04-30T06:23:03.849Z,15.60
2023-04-30T06:25:05.880Z,15.50
2023-04-30T06:27:07.658Z,15.50
2023-04-30T06:29:09.319Z,15.50
2023-04-30T06:31:11.218Z,15.50
2023-04-30T06:33:12.901Z,15.50
2023-04-30T06:35:14.804Z,15.60
2023-04-30T06:37:16.522Z,15.50
2023-04-30T06:39:18.227Z,15.50
2023-04-30T06:41:20.835Z,15.50
2023-04-30T06:43:22.461Z,15.60
2023-04-30T06:45:24.087Z,15.60
2023-04-30T06:47:25.740Z,15.60
2023-04-30T06:49:27.390Z,15.60
2023-04-30T06:51:29.044Z,15.60
2023-04-30T06:53:30.732Z,15.70
2023-04-30T06:55:32.380Z,15.70
2023-04-30T06:57:34.038Z,15.70
2023-04-30T06:59:35.747Z,15.80
2023-04-30T07:01:37.427Z,15.70
2023-04-30T07:03:39.224Z,15.80
2023-04-30T07:05:41.605Z,15.70
2023-04-30T07:07:43.223Z,15.70
2023-04-30T07:09:44.906Z,15.80
2023-04-30T07:11:46.480Z,15.80
2023-04-30T07:13:48.162Z,15.80
2023-04-30T07:15:49.959Z,15.80
2023-04-30T07:17:51.655Z,15.80
2023-04-30T07:19:53.449Z,15.80
2023-04-30T07:21:55.229Z,15.90
2023-04-30T07:23:56.806Z,15.90
2023-04-30T07:25:59.007Z,15.90
2023-04-30T07:28:00.841Z,15.90
2023-04-30T07:30:02.604Z,16.00
2023-04-30T07:32:04.901Z,16.00
2023-04-30T07:34:06.613Z,16.00
2023-04-30T07:36:08.212Z,16.10
2023-04-30T07:38:09.909Z,16.10
2023-04-30T07:40:22.003Z,16.10
2023-04-30T07:42:30.493Z,16.10
2023-04-30T07:44:32.334Z,16.10
2023-04-30T07:46:34.269Z,16.20
2023-04-30T07:48:36.055Z,16.20
2023-04-30T07:50:37.804Z,16.20
2023-04-30T07:52:39.507Z,16.20
2023-04-30T07:54:41.214Z,16.30
2023-04-30T07:56:43.040Z,16.30
2023-04-30T07:58:44.749Z,16.30
2023-04-30T08:00:46.697Z,16.30
2023-04-30T08:02:49.959Z,16.30
2023-04-30T08:04:51.830Z,16.40
2023-04-30T08:06:53.493Z,16.40
2023-04-30T08:08:55.462Z,16.50
2023-04-30T08:10:57.345Z,16.50
2023-04-30T08:12:59.180Z,16.50
2023-04-30T08:15:05.112Z,16.50
2023-04-30T08:17:06.881Z,16.50
2023-04-30T08:19:08.544Z,16.50
2023-04-30T08:21:11.521Z,16.70
2023-04-30T08:23:13.240Z,16.60
2023-04-30T08:25:14.949Z,16.70
2023-04-30T08:27:16.685Z,16.70
2023-04-30T08:29:18.345Z,16.70
2023-04-30T08:31:21.611Z,16.80
2023-04-30T08:33:23.351Z,16.80
2023-04-30T08:35:25.210Z,16.80
2023-04-30T08:37:26.831Z,16.90
2023-04-30T08:39:28.480Z,16.90
2023-04-30T08:41:32.239Z,17.00
2023-04-30T08:43:35.449Z,17.00
2023-04-30T08:45:37.141Z,17.00
2023-04-30T08:47:39.329Z,17.10
2023-04-30T08:49:41.456Z,17.20
2023-04-30T08:51:43.227Z,17.30
2023-04-30T08:53:45.831Z,17.30
2023-04-30T08:55:47.925Z,17.30
2023-04-30T08:57:49.658Z,17.40
2023-04-30T08:59:51.481Z,17.40
2023-04-30T09:01:54.024Z,17.50
2023-04-30T09:03:57.573Z,17.50
2023-04-30T09:05:59.842Z,17.60
2023-04-30T09:08:04.087Z,17.60
2023-04-30T09:10:14.185Z,17.70
2023-04-30T09:12:20.002Z,17.70
2023-04-30T09:14:26.636Z,17.70
2023-04-30T09:16:33.129Z,17.70
2023-04-30T09:18:39.108Z,17.80
2023-04-30T09:21:03.642Z,17.80
2023-04-30T09:23:06.395Z,17.80
2023-04-30T09:25:08.680Z,17.80
2023-04-30T09:27:20.143Z,17.90
2023-04-30T09:29:21.819Z,17.90
2023-04-30T09:31:25.003Z,17.90
2023-04-30T09:33:26.814Z,17.90
2023-04-30T09:35:29.404Z,18.00
2023-04-30T09:37:37.629Z,18.00
2023-04-30T09:39:57.775Z,18.00
2023-04-30T09:42:11.721Z,18.10
2023-04-30T09:44:32.693Z,18.10
2023-04-30T09:46:35.844Z,18.20
2023-04-30T09:48:41.088Z,18.20
2023-04-30T09:50:43.564Z,18.30
2023-04-30T09:53:05.049Z,18.30
2023-04-30T09:55:07.673Z,18.30
2023-04-30T09:57:11.036Z,18.40
2023-04-30T09:59:13.420Z,18.40
2023-04-30T10:01:16.170Z,18.50
2023-04-30T10:03:18.753Z,18.50
2023-04-30T10:05:20.671Z,18.60
2023-04-30T10:07:24.508Z,18.60
2023-04-30T10:09:31.869Z,18.70
2023-04-30T10:11:35.699Z,18.70
2023-04-30T10:13:45.664Z,18.70
2023-04-30T10:15:51.857Z,18.80
2023-04-30T10:18:05.060Z,18.80
2023-04-30T10:20:08.732Z,18.80
2023-04-30T10:22:11.218Z,18.90
2023-04-30T10:24:14.029Z,18.90
2023-04-30T10:26:16.951Z,19.00
2023-04-30T10:28:19.323Z,19.00
2023-04-30T10:30:22.194Z,19.00
2023-04-30T10:32:24.539Z,19.00
2023-04-30T10:34:27.027Z,19.10
2023-04-30T10:36:33.867Z,19.10
2023-04-30T10:38:36.170Z,19.10
2023-04-30T10:40:38.553Z,19.20
2023-04-30T10:42:45.517Z,19.20
2023-04-30T10:44:48.663Z,19.20
2023-04-30T10:46:58.391Z,19.20
2023-04-30T10:49:00.710Z,19.20
2023-04-30T10:51:02.536Z,19.20
2023-04-30T10:53:04.704Z,19.20
2023-04-30T10:55:07.579Z,19.20
2023-04-30T10:57:14.172Z,19.20
2023-04-30T10:59:15.985Z,19.20
2023-04-30T11:01:17.913Z,19.20
2023-04-30T11:03:22.160Z,19.20
2023-04-30T11:05:50.200Z,19.20
2023-04-30T11:07:56.209Z,19.20
2023-04-30T11:09:58.058Z,19.20
2023-04-30T11:12:03.793Z,19.20
2023-04-30T11:14:05.669Z,19.20
2023-04-30T11:16:07.563Z,19.20
2023-04-30T11:18:09.831Z,19.30
2023-04-30T11:20:18.714Z,19.30
2023-04-30T11:22:24.534Z,19.30
2023-04-30T11:24:44.737Z,19.30
2023-04-30T11:27:03.368Z,19.30
2023-04-30T11:29:05.464Z,19.40
2023-04-30T11:31:07.369Z,19.40
2023-04-30T11:33:09.949Z,19.40
2023-04-30T11:35:11.806Z,19.40
2023-04-30T11:37:17.311Z,19.50
2023-04-30T11:39:20.827Z,19.50
2023-04-30T11:41:23.310Z,19.50
2023-04-30T11:43:26.307Z,19.60
2023-04-30T11:45:28.321Z,19.60
2023-04-30T11:47:38.563Z,19.70
2023-04-30T11:49:40.643Z,19.70
2023-04-30T11:51:42.470Z,19.70
2023-04-30T11:53:45.846Z,19.70
2023-04-30T11:55:47.568Z,19.80
2023-04-30T11:57:50.346Z,19.80
2023-04-30T11:59:52.047Z,19.80
2023-04-30T12:01:54.098Z,19.80
2023-04-30T12:03:57.446Z,19.90
2023-04-30T12:05:59.490Z,19.90
2023-04-30T12:08:04.669Z,19.90
2023-04-30T12:10:06.727Z,20.00
2023-04-30T12:12:08.420Z,20.00
2023-04-30T12:14:11.005Z,20.00
2023-04-30T12:16:12.756Z,20.00
2023-04-30T12:18:15.594Z,20.10
2023-04-30T12:20:18.653Z,20.10
2023-04-30T12:22:20.609Z,20.20
2023-04-30T12:24:23.707Z,20.20
2023-04-30T12:26:33.920Z,20.30
2023-04-30T12:28:36.432Z,20.40
2023-04-30T12:30:38.265Z,20.50
2023-04-30T12:32:41.085Z,20.60
2023-04-30T12:34:42.899Z,20.70
2023-04-30T12:36:44.602Z,20.90
2023-04-30T12:38:47.223Z,21.00
2023-04-30T12:40:49.154Z,21.20
2023-04-30T12:42:51.555Z,21.30
2023-04-30T12:44:53.308Z,21.40
2023-04-30T12:47:00.667Z,21.60
2023-04-30T12:49:02.695Z,21.70
2023-04-30T12:51:05.286Z,21.80
2023-04-30T12:53:10.195Z,21.90
2023-04-30T12:55:19.019Z,22.00
2023-04-30T12:57:21.156Z,22.10
2023-04-30T12:59:22.836Z,22.10
2023-04-30T13:01:25.454Z,22.20
2023-04-30T13:03:27.304Z,22.20
2023-04-30T13:05:29.117Z,22.30
2023-04-30T13:07:38.713Z,22.30
2023-04-30T13:09:40.763Z,22.30
2023-04-30T13:11:42.421Z,22.40
2023-04-30T13:13:44.103Z,22.40
2023-04-30T13:15:45.902Z,22.50
2023-04-30T13:17:47.689Z,22.60
2023-04-30T13:19:50.179Z,22.60
2023-04-30T13:21:51.900Z,22.70
2023-04-30T13:23:54.911Z,22.70
2023-04-30T13:25:57.829Z,22.80
2023-04-30T13:27:59.555Z,22.80
2023-04-30T13:30:02.298Z,22.90
2023-04-30T13:32:04.326Z,22.90
2023-04-30T13:34:06.432Z,22.90
2023-04-30T13:36:08.243Z,23.00
2023-04-30T13:38:10.225Z,23.00
2023-04-30T13:40:12.165Z,23.10
2023-04-30T13:42:14.089Z,23.10
2023-04-30T13:44:16.988Z,23.10
2023-04-30T13:46:19.056Z,23.20
2023-04-30T13:48:20.745Z,23.20
2023-04-30T13:50:22.442Z,23.20
2023-04-30T13:52:24.125Z,23.30
2023-04-30T13:54:25.822Z,23.30
2023-04-30T13:56:27.650Z,23.30
2023-04-30T13:58:29.294Z,23.30
2023-04-30T14:00:31.031Z,23.40
2023-04-30T14:02:32.868Z,23.40
2023-04-30T14:04:34.655Z,23.50
2023-04-30T14:06:36.964Z,23.50
2023-04-30T14:08:38.654Z,23.60
2023-04-30T14:10:40.317Z,23.60
2023-04-30T14:12:42.025Z,23.60
2023-04-30T14:14:43.719Z,23.60
2023-04-30T14:16:45.437Z,23.70
2023-04-30T14:18:47.545Z,23.70
2023-04-30T14:20:49.447Z,23.70
2023-04-30T14:22:51.120Z,23.70
2023-04-30T14:24:53.350Z,23.70
2023-04-30T14:26:55.156Z,23.70
2023-04-30T14:28:57.283Z,23.60
2023-04-30T14:30:59.016Z,23.60
2023-04-30T14:33:00.801Z,23.60
2023-04-30T14:35:03.441Z,23.50
2023-04-30T14:37:05.409Z,23.50
2023-04-30T14:39:07.368Z,23.40
2023-04-30T14:41:09.082Z,23.40
2023-04-30T14:43:10.963Z,23.40
2023-04-30T14:45:12.766Z,23.30
2023-04-30T14:47:14.632Z,23.40
2023-04-30T14:49:16.705Z,23.30
2023-04-30T14:51:18.517Z,23.30
2023-04-30T14:53:20.297Z,23.40
2023-04-30T14:55:22.042Z,23.40
2023-04-30T14:57:23.760Z,23.40
2023-04-30T14:59:25.569Z,23.40
2023-04-30T15:01:28.695Z,23.50
2023-04-30T15:03:31.218Z,23.60
2023-04-30T15:05:33.168Z,23.70
2023-04-30T15:07:34.828Z,23.70
2023-04-30T15:09:36.573Z,23.70
2023-04-30T15:11:38.339Z,23.70
2023-04-30T15:13:40.275Z,23.70
2023-04-30T15:15:42.185Z,23.70
2023-04-30T15:17:43.954Z,23.70
2023-04-30T15:19:45.842Z,23.70
2023-04-30T15:21:48.963Z,23.80
2023-04-30T15:23:50.998Z,23.80
2023-04-30T15:25:53.036Z,23.80
2023-04-30T15:27:54.868Z,23.80
2023-04-30T15:29:56.958Z,23.90
2023-04-30T15:31:59.766Z,23.90
2023-04-30T15:34:01.672Z,24.00
2023-04-30T15:36:03.933Z,24.00
2023-04-30T15:38:05.608Z,24.00
2023-04-30T15:40:08.413Z,24.00
2023-04-30T15:42:10.204Z,24.10
2023-04-30T15:44:12.039Z,24.00
2023-04-30T15:46:13.869Z,24.10
2023-04-30T15:48:15.844Z,24.10
2023-04-30T15:50:17.567Z,24.10
2023-04-30T15:52:19.389Z,24.10
2023-04-30T15:54:21.195Z,24.20
2023-04-30T15:56:25.732Z,24.20
2023-04-30T15:58:27.524Z,24.30
2023-04-30T16:00:29.286Z,24.30
2023-04-30T16:02:31.401Z,24.30
2023-04-30T16:04:33.197Z,24.40
2023-04-30T16:06:35.550Z,24.40
2023-04-30T16:08:37.338Z,24.40
2023-04-30T16:10:39.184Z,24.40
2023-04-30T16:12:41.220Z,24.40
2023-04-30T16:14:42.923Z,24.40
2023-04-30T16:16:44.692Z,24.40
2023-04-30T16:18:46.405Z,24.40
2023-04-30T16:20:48.680Z,24.40
2023-04-30T16:22:50.595Z,24.40
2023-04-30T16:24:52.336Z,24.40
2023-04-30T16:26:54.066Z,24.40
2023-04-30T16:28:55.729Z,24.40
2023-04-30T16:30:58.127Z,24.30
2023-04-30T16:32:59.986Z,24.20
2023-04-30T16:35:01.729Z,24.20
2023-04-30T16:37:03.718Z,24.20
2023-04-30T16:39:05.848Z,24.10
2023-04-30T16:41:07.616Z,24.10
2023-04-30T16:43:09.572Z,24.00
2023-04-30T16:45:11.298Z,23.90
2023-04-30T16:47:13.124Z,23.90
2023-04-30T16:49:15.026Z,23.80
2023-04-30T16:51:16.791Z,23.80
2023-04-30T16:53:18.473Z,23.70
2023-04-30T16:55:20.242Z,23.70
2023-04-30T16:57:22.736Z,23.60
2023-04-30T16:59:24.677Z,23.50
2023-04-30T17:01:26.540Z,23.50
2023-04-30T17:03:29.803Z,23.40
2023-04-30T17:05:31.845Z,23.40
2023-04-30T17:07:33.497Z,23.30
2023-04-30T17:09:36.716Z,23.30
2023-04-30T17:11:38.407Z,23.20
2023-04-30T17:13:40.129Z,23.20
2023-04-30T17:15:42.707Z,23.10
2023-04-30T17:17:44.521Z,23.00
2023-04-30T17:19:46.435Z,23.00
2023-04-30T17:21:50.097Z,22.90
2023-04-30T17:23:51.973Z,22.80
2023-04-30T17:25:53.749Z,22.80
2023-04-30T17:27:58.339Z,22.70
2023-04-30T17:30:00.332Z,22.70
2023-04-30T17:32:02.088Z,22.60
2023-04-30T17:34:03.821Z,22.50
2023-04-30T17:36:05.662Z,22.50
2023-04-30T17:38:07.474Z,22.50
2023-04-30T17:40:09.510Z,22.40
2023-04-30T17:42:13.043Z,22.40
2023-04-30T17:44:15.573Z,22.30
2023-04-30T17:46:17.429Z,22.30
2023-04-30T17:48:19.564Z,22.20
2023-04-30T17:50:21.262Z,22.10
2023-04-30T17:52:22.900Z,22.10
2023-04-30T17:54:25.369Z,22.10
2023-04-30T17:56:28.550Z,22.00
2023-04-30T17:58:30.452Z,22.00
2023-04-30T18:00:32.663Z,21.90
2023-04-30T18:02:34.514Z,21.90
2023-04-30T18:04:36.355Z,21.80
2023-04-30T18:06:38.312Z,21.80
2023-04-30T18:08:40.122Z,21.70
2023-04-30T18:10:41.847Z,21.60
2023-04-30T18:12:44.696Z,21.60
2023-04-30T18:14:46.552Z,21.50
2023-04-30T18:16:48.362Z,21.50
2023-04-30T18:18:50.101Z,21.40
2023-04-30T18:20:53.073Z,21.30
2023-04-30T18:22:54.998Z,21.30
2023-04-30T18:24:57.083Z,21.20
2023-04-30T18:26:58.831Z,21.10
2023-04-30T18:29:00.616Z,21.00
2023-04-30T18:31:02.596Z,21.00
2023-04-30T18:33:04.991Z,20.90
2023-04-30T18:35:06.926Z,20.80
2023-04-30T18:37:08.767Z,20.80
2023-04-30T18:39:13.426Z,20.70
2023-04-30T18:41:15.381Z,20.60
2023-04-30T18:43:17.309Z,20.60
2023-04-30T18:45:19.123Z,20.50
2023-04-30T18:47:24.175Z,20.40
2023-04-30T18:49:26.220Z,20.30
2023-04-30T18:51:29.440Z,20.20
2023-04-30T18:53:31.328Z,20.20
2023-04-30T18:55:33.306Z,20.10
2023-04-30T18:57:35.275Z,20.10
2023-04-30T18:59:39.139Z,20.00
2023-04-30T19:01:41.113Z,19.90
2023-04-30T19:03:43.135Z,19.90
2023-04-30T19:05:45.156Z,19.90
2023-04-30T19:07:47.040Z,19.80
2023-04-30T19:09:51.732Z,19.80
2023-04-30T19:11:53.589Z,19.70
2023-04-30T19:13:55.719Z,19.60
2023-04-30T19:15:57.460Z,19.60
2023-04-30T19:17:59.382Z,19.50
2023-04-30T19:20:01.109Z,19.50
2023-04-30T19:22:03.930Z,19.40
2023-04-30T19:24:26.657Z,19.30
2023-04-30T19:26:28.568Z,19.30
2023-04-30T19:28:30.386Z,19.30
2023-04-30T19:30:32.698Z,19.20
2023-04-30T19:32:34.577Z,19.10
2023-04-30T19:34:37.283Z,19.10
2023-04-30T19:36:39.351Z,19.00
2023-04-30T19:38:41.369Z,19.00
2023-04-30T19:40:46.830Z,19.00
2023-04-30T19:42:48.553Z,18.90
2023-04-30T19:44:51.653Z,18.80
2023-04-30T19:46:53.451Z,18.80
2023-04-30T19:48:58.068Z,18.80
2023-04-30T19:51:05.266Z,18.70
2023-04-30T19:53:09.342Z,18.70
2023-04-30T19:55:19.996Z,18.60
2023-04-30T19:57:26.335Z,18.60
2023-04-30T19:59:31.704Z,18.50
2023-04-30T20:01:33.521Z,18.50
2023-04-30T20:03:35.739Z,18.50
2023-04-30T20:05:39.371Z,18.40
2023-04-30T20:07:42.189Z,18.40
2023-04-30T20:09:46.605Z,18.30
2023-04-30T20:11:50.812Z,18.30
2023-04-30T20:13:54.161Z,18.30
2023-04-30T20:15:56.352Z,18.20
2023-04-30T20:18:04.342Z,18.20
2023-04-30T20:20:08.832Z,18.10
2023-04-30T20:22:15.620Z,18.10
2023-04-30T20:24:18.179Z,18.10
2023-04-30T20:26:28.603Z,18.00
2023-04-30T20:28:32.019Z,18.00
2023-04-30T20:30:36.817Z,18.00
2023-04-30T20:32:42.183Z,17.90
2023-04-30T20:34:52.394Z,17.90
2023-04-30T20:37:03.257Z,17.90
2023-04-30T20:39:09.820Z,17.90
2023-04-30T20:41:21.803Z,17.80
2023-04-30T20:43:31.190Z,17.80
2023-04-30T20:45:37.813Z,17.80
2023-04-30T20:47:39.869Z,17.70
2023-04-30T20:49:43.488Z,17.70
2023-04-30T20:51:45.377Z,17.70
2023-04-30T20:53:47.203Z,17.70
2023-04-30T20:55:49.007Z,17.60
2023-04-30T20:57:56.347Z,17.60
2023-04-30T21:00:00.724Z,17.60
2023-04-30T21:02:03.686Z,17.60
2023-04-30T21:04:05.596Z,17.50
2023-04-30T21:06:07.707Z,17.60
2023-04-30T21:08:09.503Z,17.50
2023-04-30T21:10:12.565Z,17.50
2023-04-30T21:12:14.350Z,17.50
2023-04-30T21:14:16.124Z,17.40
2023-04-30T21:16:18.276Z,17.40
2023-04-30T21:18:20.071Z,17.40
2023-04-30T21:20:21.777Z,17.40
2023-04-30T21:22:24.037Z,17.30
2023-04-30T21:24:25.798Z,17.40
2023-04-30T21:26:27.756Z,17.40
2023-04-30T21:28:29.489Z,17.30
2023-04-30T21:30:31.317Z,17.30
2023-04-30T21:32:33.171Z,17.30
2023-04-30T21:34:34.940Z,17.30
2023-04-30T21:36:37.480Z,17.20
2023-04-30T21:38:39.184Z,17.20
2023-04-30T21:40:42.487Z,17.20
2023-04-30T21:42:44.174Z,17.20
2023-04-30T21:44:45.918Z,17.20
2023-04-30T21:46:47.821Z,17.10
2023-04-30T21:48:49.810Z,17.10
2023-04-30T21:50:51.460Z,17.10
2023-04-30T21:52:53.361Z,17.10
2023-04-30T21:54:55.164Z,17.10
2023-04-30T21:56:56.862Z,17.10
2023-04-30T21:58:58.568Z,17.10
2023-04-30T22:01:00.694Z,17.10
2023-04-30T22:03:02.483Z,17.00
2023-04-30T22:05:04.318Z,17.00
2023-04-30T22:07:05.950Z,17.00
2023-04-30T22:09:07.628Z,17.00
2023-04-30T22:11:09.272Z,17.00
2023-04-30T22:13:11.032Z,17.00
2023-04-30T22:15:12.769Z,17.00
2023-04-30T22:17:14.430Z,16.90
2023-04-30T22:19:16.295Z,17.10
2023-04-30T22:21:17.931Z,16.90
2023-04-30T22:23:21.306Z,16.90
2023-04-30T22:25:23.126Z,16.90
2023-04-30T22:27:24.932Z,16.90
2023-04-30T22:29:26.917Z,16.90
2023-04-30T22:31:29.296Z,16.90
2023-04-30T22:33:37.707Z,16.90
2023-04-30T22:35:39.496Z,16.90
2023-04-30T22:37:41.199Z,16.80
2023-04-30T22:39:43.051Z,16.90
2023-04-30T22:41:47.774Z,16.90
2023-04-30T22:43:49.492Z,16.80
2023-04-30T22:45:51.178Z,16.90
2023-04-30T22:47:53.469Z,16.80
2023-04-30T22:49:55.879Z,16.80
2023-04-30T22:51:57.872Z,16.80
2023-04-30T22:53:59.796Z,16.80
2023-04-30T22:56:01.515Z,16.70
2023-04-30T22:58:03.188Z,16.70
2023-04-30T23:00:05.276Z,16.70
2023-04-30T23:02:07.031Z,16.70
2023-04-30T23:04:09.378Z,16.70
2023-04-30T23:06:11.724Z,16.70
2023-04-30T23:08:13.674Z,16.70
2023-04-30T23:10:15.832Z,16.70
2023-04-30T23:12:17.532Z,16.60
2023-04-30T23:14:19.214Z,16.60
2023-04-30T23:16:20.960Z,16.60
2023-04-30T23:18:23.848Z,16.60
2023-04-30T23:20:25.643Z,16.60
2023-04-30T23:22:27.366Z,16.60
2023-04-30T23:24:29.167Z,16.60
2023-04-30T23:26:30.912Z,16.50
2023-04-30T23:28:32.836Z,16.50
2023-04-30T23:30:37.301Z,16.50
2023-04-30T23:32:39.097Z,16.70
2023-04-30T23:34:40.883Z,16.50
2023-04-30T23:36:42.974Z,16.50
2023-04-30T23:38:46.576Z,16.50
2023-04-30T23:40:48.270Z,16.50
2023-04-30T23:42:49.945Z,16.60
2023-04-30T23:44:51.566Z,16.50
2023-04-30T23:46:53.759Z,16.50
2023-04-30T23:48:56.110Z,16.50
2023-04-30T23:51:01.942Z,16.50
2023-04-30T23:53:03.624Z,16.40
2023-04-30T23:55:05.548Z,16.40
2023-04-30T23:57:10.049Z,16.40
2023-04-30T23:59:12.367Z,16.40
